createdAt,value
2023-03-26T00:01:07.686Z,7.70
2023-03-26T00:03:35.288Z,7.80
2023-03-26T00:06:09.548Z,7.70
2023-03-26T00:08:37.065Z,7.80
2023-03-26T00:11:04.445Z,7.80
2023-03-26T00:13:32.194Z,7.90
2023-03-26T00:15:59.343Z,7.70
2023-03-26T00:18:30.656Z,7.80
2023-03-26T00:20:58.922Z,7.60
2023-03-26T00:23:27.060Z,7.70
2023-03-26T00:25:54.882Z,7.80
2023-03-26T00:28:22.248Z,7.80
2023-03-26T00:30:49.276Z,7.70
2023-03-26T00:33:18.963Z,7.60
2023-03-26T00:35:47.208Z,7.60
2023-03-26T00:38:14.661Z,7.70
2023-03-26T00:40:48.071Z,7.70
2023-03-26T00:43:20.780Z,7.80
2023-03-26T00:45:48.868Z,7.80
2023-03-26T00:48:16.474Z,7.60
2023-03-26T00:50:44.385Z,7.70
2023-03-26T00:53:14.065Z,7.70
2023-03-26T00:55:44.842Z,7.50
2023-03-26T00:58:11.782Z,7.70
2023-03-26T01:00:52.475Z,7.60
2023-03-26T01:03:26.805Z,7.80
2023-03-26T01:06:08.170Z,7.70
2023-03-26T01:08:34.964Z,7.80
2023-03-26T01:11:06.741Z,7.80
2023-03-26T01:13:36.126Z,7.80
2023-03-26T01:16:04.114Z,7.60
2023-03-26T01:18:34.213Z,7.70
2023-03-26T01:21:05.388Z,7.60
2023-03-26T01:23:38.763Z,7.70
2023-03-26T01:26:16.430Z,7.80
2023-03-26T01:28:43.353Z,7.60
2023-03-26T01:31:17.347Z,7.70
2023-03-26T01:33:52.312Z,7.60
2023-03-26T01:36:19.107Z,7.50
2023-03-26T01:38:48.827Z,7.70
2023-03-26T01:41:15.548Z,7.70
2023-03-26T01:43:45.368Z,7.50
2023-03-26T01:46:13.933Z,7.40
2023-03-26T01:48:42.630Z,7.50
2023-03-26T01:51:10.457Z,7.50
2023-03-26T01:53:47.667Z,7.40
2023-03-26T01:56:17.579Z,7.50
2023-03-26T01:58:44.329Z,7.50
2023-03-26T02:01:12.753Z,7.40
2023-03-26T02:03:44.995Z,7.40
2023-03-26T02:06:37.433Z,7.60
2023-03-26T02:09:08.063Z,7.60
2023-03-26T02:11:37.098Z,7.60
2023-03-26T02:14:08.131Z,7.50
2023-03-26T02:16:35.260Z,7.50
2023-03-26T02:19:04.471Z,7.50
2023-03-26T02:21:34.039Z,7.40
2023-03-26T02:24:04.205Z,7.40
2023-03-26T02:26:31.936Z,7.40
2023-03-26T02:28:59.142Z,7.50
2023-03-26T02:31:26.564Z,7.40
2023-03-26T02:33:55.570Z,7.50
2023-03-26T02:36:27.509Z,7.50
2023-03-26T02:38:55.585Z,7.50
2023-03-26T02:41:22.349Z,7.40
2023-03-26T02:43:49.408Z,7.30
2023-03-26T02:46:16.179Z,7.50
2023-03-26T02:48:44.001Z,7.30
2023-03-26T02:51:10.947Z,7.40
2023-03-26T02:53:39.505Z,7.40
2023-03-26T02:56:06.647Z,7.40
2023-03-26T02:58:33.480Z,7.30
2023-03-26T03:01:03.368Z,7.40
2023-03-26T03:03:30.490Z,7.40
2023-03-26T03:05:57.816Z,7.40
2023-03-26T03:08:26.790Z,7.40
2023-03-26T03:11:13.296Z,7.50
2023-03-26T03:13:41.879Z,7.50
2023-03-26T03:16:08.937Z,7.40
2023-03-26T03:18:35.796Z,7.30
2023-03-26T03:21:03.068Z,7.40
2023-03-26T03:23:29.985Z,7.40
2023-03-26T03:25:57.518Z,7.60
2023-03-26T03:28:25.076Z,7.50
2023-03-26T03:30:57.600Z,7.40
2023-03-26T03:33:24.402Z,7.50
2023-03-26T03:35:51.605Z,7.40
2023-03-26T03:38:19.280Z,7.40
2023-03-26T03:40:46.158Z,7.30
2023-03-26T03:43:12.846Z,7.40
2023-03-26T03:45:39.747Z,7.20
2023-03-26T03:48:06.523Z,7.30
2023-03-26T03:50:35.667Z,7.20
2023-03-26T03:53:03.042Z,7.20
2023-03-26T03:55:30.065Z,7.20
2023-03-26T03:57:58.342Z,7.30
2023-03-26T04:00:25.133Z,7.30
2023-03-26T04:02:54.458Z,7.20
2023-03-26T04:05:21.651Z,7.30
2023-03-26T04:07:48.430Z,7.30
2023-03-26T04:10:16.066Z,7.20
2023-03-26T04:12:42.801Z,7.20
2023-03-26T04:15:09.734Z,7.20
2023-03-26T04:17:42.974Z,7.20
2023-03-26T04:20:15.731Z,7.20
2023-03-26T04:22:43.441Z,7.20
2023-03-26T04:25:10.448Z,7.30
2023-03-26T04:27:37.556Z,7.30
2023-03-26T04:30:06.361Z,7.30
2023-03-26T04:32:38.350Z,7.30
2023-03-26T04:35:05.351Z,7.30
2023-03-26T04:37:41.824Z,7.20
2023-03-26T04:40:11.713Z,7.30
2023-03-26T04:42:41.762Z,7.30
2023-03-26T04:45:09.279Z,7.40
2023-03-26T04:47:37.161Z,7.30
2023-03-26T04:50:04.791Z,7.30
2023-03-26T04:52:31.587Z,7.30
2023-03-26T04:54:58.422Z,7.30
2023-03-26T04:57:34.809Z,7.30
2023-03-26T05:00:02.830Z,7.40
2023-03-26T05:02:29.543Z,7.30
2023-03-26T05:04:57.246Z,7.40
2023-03-26T05:07:24.239Z,7.40
2023-03-26T05:09:51.090Z,7.50
2023-03-26T05:12:17.943Z,7.60
2023-03-26T05:14:44.683Z,7.50
2023-03-26T05:17:14.873Z,7.70
2023-03-26T05:19:41.785Z,7.70
2023-03-26T05:22:08.474Z,7.70
2023-03-26T05:24:35.301Z,7.70
2023-03-26T05:27:02.046Z,7.70
2023-03-26T05:29:28.789Z,7.70
2023-03-26T05:31:55.534Z,7.70
2023-03-26T05:34:26.322Z,7.70
2023-03-26T05:36:53.089Z,7.80
2023-03-26T05:39:22.649Z,7.70
2023-03-26T05:41:50.036Z,7.80
2023-03-26T05:44:16.765Z,7.50
2023-03-26T05:46:43.461Z,7.70
2023-03-26T05:49:10.324Z,7.80
2023-03-26T05:51:37.039Z,7.80
2023-03-26T05:54:03.859Z,7.80
2023-03-26T05:56:30.813Z,8.00
2023-03-26T05:58:57.701Z,8.00
2023-03-26T06:01:25.768Z,8.10
2023-03-26T06:03:52.677Z,8.30
2023-03-26T06:06:20.499Z,8.40
2023-03-26T06:09:00.916Z,8.50
2023-03-26T06:11:29.717Z,8.50
2023-03-26T06:13:56.475Z,8.50
2023-03-26T06:16:27.128Z,8.50
2023-03-26T06:18:56.678Z,8.50
2023-03-26T06:21:28.275Z,8.70
2023-03-26T06:23:55.338Z,8.70
2023-03-26T06:26:22.289Z,8.60
2023-03-26T06:28:49.316Z,8.50
2023-03-26T06:31:17.372Z,8.50
2023-03-26T06:33:44.145Z,8.40
2023-03-26T06:36:10.981Z,8.40
2023-03-26T06:38:37.823Z,8.50
2023-03-26T06:41:05.564Z,8.50
2023-03-26T06:43:36.310Z,8.50
2023-03-26T06:46:03.979Z,8.60
2023-03-26T06:48:31.299Z,8.50
2023-03-26T06:50:58.134Z,8.50
2023-03-26T06:53:24.870Z,8.60
2023-03-26T06:55:52.811Z,8.40
2023-03-26T06:58:19.865Z,8.20
2023-03-26T07:00:46.751Z,8.40
2023-03-26T07:03:17.236Z,8.30
2023-03-26T07:05:44.079Z,8.10
2023-03-26T07:08:10.828Z,8.30
2023-03-26T07:10:37.654Z,8.30
2023-03-26T07:13:04.383Z,8.40
2023-03-26T07:15:31.083Z,8.20
2023-03-26T07:17:57.900Z,8.40
2023-03-26T07:20:24.869Z,8.70
2023-03-26T07:22:51.766Z,8.80
2023-03-26T07:25:19.160Z,8.80
2023-03-26T07:28:04.768Z,8.70
2023-03-26T07:30:42.066Z,8.50
2023-03-26T07:33:16.075Z,8.40
2023-03-26T07:36:18.135Z,8.30
2023-03-26T07:38:44.876Z,8.30
2023-03-26T07:41:14.338Z,8.40
2023-03-26T07:43:48.011Z,8.50
2023-03-26T07:46:15.391Z,8.50
2023-03-26T07:48:43.959Z,8.70
2023-03-26T07:51:11.390Z,9.30
2023-03-26T07:53:38.395Z,9.70
2023-03-26T07:56:05.282Z,10.10
2023-03-26T07:58:50.555Z,10.20
2023-03-26T08:01:36.424Z,10.40
2023-03-26T08:04:23.783Z,10.70
2023-03-26T08:07:08.089Z,10.70
2023-03-26T08:09:47.698Z,10.70
2023-03-26T08:12:20.329Z,10.60
2023-03-26T08:15:05.488Z,10.40
2023-03-26T08:17:32.453Z,10.40
2023-03-26T08:20:20.481Z,10.20
2023-03-26T08:22:50.932Z,10.10
2023-03-26T08:25:38.056Z,9.90
2023-03-26T08:28:12.596Z,9.70
2023-03-26T08:30:39.484Z,9.80
2023-03-26T08:33:11.324Z,10.00
2023-03-26T08:35:42.630Z,10.10
2023-03-26T08:38:10.723Z,10.10
2023-03-26T08:40:56.175Z,10.20
2023-03-26T08:43:22.991Z,10.20
2023-03-26T08:45:59.624Z,10.50
2023-03-26T08:48:29.889Z,11.10
2023-03-26T08:50:56.842Z,11.40
2023-03-26T08:53:42.347Z,10.90
2023-03-26T08:56:09.057Z,10.80
2023-03-26T08:58:57.678Z,10.70
2023-03-26T09:01:27.400Z,10.70
2023-03-26T09:04:12.747Z,10.50
2023-03-26T09:06:58.104Z,10.70
2023-03-26T09:09:43.484Z,11.40
2023-03-26T09:12:29.022Z,12.20
2023-03-26T09:15:14.467Z,12.80
2023-03-26T09:17:59.796Z,13.20
2023-03-26T09:20:45.688Z,14.00
2023-03-26T09:23:13.955Z,14.50
2023-03-26T09:25:53.282Z,14.90
2023-03-26T09:28:21.952Z,15.00
2023-03-26T09:31:08.940Z,14.40
2023-03-26T09:34:00.281Z,13.70
2023-03-26T09:36:45.839Z,13.10
2023-03-26T09:39:29.806Z,12.60
2023-03-26T09:42:08.883Z,12.10
2023-03-26T09:44:59.811Z,12.00
2023-03-26T09:47:32.510Z,12.30
2023-03-26T09:50:18.360Z,12.80
2023-03-26T09:52:50.167Z,13.20
2023-03-26T09:55:43.114Z,13.40
2023-03-26T09:58:28.593Z,13.40
2023-03-26T10:01:06.967Z,13.40
2023-03-26T10:03:38.215Z,13.00
2023-03-26T10:06:23.222Z,12.30
2023-03-26T10:09:08.635Z,12.70
2023-03-26T10:11:47.485Z,13.60
2023-03-26T10:14:29.046Z,13.20
2023-03-26T10:17:05.107Z,12.20
2023-03-26T10:19:39.739Z,11.30
2023-03-26T10:22:25.320Z,11.30
2023-03-26T10:25:10.906Z,11.70
2023-03-26T10:27:42.637Z,11.70
2023-03-26T10:30:21.268Z,13.00
2023-03-26T10:32:51.077Z,13.80
2023-03-26T10:35:27.405Z,14.50
2023-03-26T10:38:15.436Z,16.00
2023-03-26T10:40:43.149Z,15.40
2023-03-26T10:43:28.342Z,14.10
2023-03-26T10:45:57.969Z,12.90
2023-03-26T10:48:30.718Z,11.60
2023-03-26T10:51:16.098Z,10.50
2023-03-26T10:53:51.883Z,10.00
2023-03-26T10:56:18.583Z,9.60
2023-03-26T10:58:49.627Z,9.10
2023-03-26T11:01:20.489Z,8.70
2023-03-26T11:03:54.903Z,8.70
2023-03-26T11:06:36.688Z,8.50
2023-03-26T11:09:03.455Z,8.40
2023-03-26T11:11:45.518Z,8.70
2023-03-26T11:14:34.521Z,9.30
2023-03-26T11:17:39.558Z,11.90
2023-03-26T11:20:14.658Z,13.50
2023-03-26T11:22:41.441Z,15.00
2023-03-26T11:25:24.165Z,15.60
2023-03-26T11:27:53.969Z,18.00
2023-03-26T11:30:20.810Z,20.40
2023-03-26T11:32:50.450Z,20.80
2023-03-26T11:35:39.583Z,21.20
2023-03-26T11:38:13.706Z,22.10
2023-03-26T11:40:42.821Z,20.40
2023-03-26T11:43:12.063Z,22.80
2023-03-26T11:45:42.098Z,24.90
2023-03-26T11:48:09.524Z,26.20
2023-03-26T11:50:41.115Z,26.00
2023-03-26T11:53:15.016Z,23.40
2023-03-26T11:55:44.467Z,21.20
2023-03-26T11:58:22.720Z,19.40
2023-03-26T12:00:50.366Z,16.90
2023-03-26T12:03:17.075Z,15.00
2023-03-26T12:05:48.667Z,14.00
2023-03-26T12:08:20.066Z,13.20
2023-03-26T12:10:50.728Z,12.90
2023-03-26T12:13:36.622Z,12.80
2023-03-26T12:16:11.418Z,12.90
2023-03-26T12:18:39.872Z,13.10
2023-03-26T12:21:12.332Z,14.50
2023-03-26T12:23:43.586Z,17.90
2023-03-26T12:26:14.401Z,20.50
2023-03-26T12:28:45.568Z,19.90
2023-03-26T12:31:19.591Z,21.10
2023-03-26T12:33:52.481Z,21.20
2023-03-26T12:36:26.373Z,19.20
2023-03-26T12:39:42.885Z,17.40
2023-03-26T12:42:52.738Z,16.30
2023-03-26T12:44:55.919Z,17.30
2023-03-26T12:48:00.391Z,16.70
2023-03-26T12:50:12.479Z,15.30
2023-03-26T12:52:56.368Z,14.20
2023-03-26T12:55:44.120Z,13.60
2023-03-26T12:58:33.611Z,13.20
2023-03-26T13:01:02.633Z,12.90
2023-03-26T13:03:30.770Z,12.40
2023-03-26T13:06:00.488Z,12.00
2023-03-26T13:08:46.630Z,11.60
2023-03-26T13:11:13.298Z,11.30
2023-03-26T13:13:45.792Z,11.10
2023-03-26T13:16:16.367Z,10.90
2023-03-26T13:18:46.141Z,10.70
2023-03-26T13:21:19.543Z,10.60
2023-03-26T13:23:54.795Z,10.50
2023-03-26T13:26:37.688Z,10.60
2023-03-26T13:29:10.245Z,10.70
2023-03-26T13:31:42.097Z,10.70
2023-03-26T13:34:20.929Z,10.70
2023-03-26T13:37:12.826Z,10.80
2023-03-26T13:39:46.106Z,11.00
2023-03-26T13:42:21.965Z,10.90
2023-03-26T13:44:48.673Z,13.10
2023-03-26T13:47:26.806Z,15.50
2023-03-26T13:50:13.779Z,15.00
2023-03-26T13:52:44.759Z,14.40
2023-03-26T13:55:29.494Z,13.70
2023-03-26T13:58:22.495Z,13.40
2023-03-26T14:00:58.254Z,12.90
2023-03-26T14:03:35.646Z,12.90
2023-03-26T14:06:06.657Z,12.80
2023-03-26T14:08:37.370Z,12.50
2023-03-26T14:11:11.052Z,11.90
2023-03-26T14:13:47.786Z,11.20
2023-03-26T14:16:20.980Z,11.10
2023-03-26T14:18:56.891Z,11.10
2023-03-26T14:21:42.541Z,10.90
2023-03-26T14:24:12.806Z,10.90
2023-03-26T14:26:40.416Z,10.60
2023-03-26T14:29:10.026Z,10.60
2023-03-26T14:31:37.120Z,10.60
2023-03-26T14:34:23.560Z,10.40
2023-03-26T14:37:06.094Z,10.20
2023-03-26T14:39:35.900Z,10.00
2023-03-26T14:42:07.482Z,9.90
2023-03-26T14:44:47.558Z,9.60
2023-03-26T14:47:22.210Z,9.50
2023-03-26T14:49:51.644Z,9.30
2023-03-26T14:52:18.486Z,9.30
2023-03-26T14:54:46.704Z,9.40
2023-03-26T14:57:27.215Z,9.40
2023-03-26T14:59:56.781Z,9.30
2023-03-26T15:02:35.886Z,9.40
2023-03-26T15:05:02.601Z,9.30
2023-03-26T15:07:38.943Z,9.30
2023-03-26T15:10:14.494Z,9.40
2023-03-26T15:12:48.535Z,9.20
2023-03-26T15:15:35.071Z,9.10
2023-03-26T15:18:01.763Z,9.10
2023-03-26T15:20:47.013Z,9.30
2023-03-26T15:23:16.523Z,9.20
2023-03-26T15:26:00.550Z,9.30
2023-03-26T15:28:39.402Z,9.30
2023-03-26T15:31:16.588Z,9.50
2023-03-26T15:33:58.620Z,9.60
2023-03-26T15:36:44.767Z,9.50
2023-03-26T15:39:14.876Z,9.40
2023-03-26T15:41:45.297Z,9.40
2023-03-26T15:44:24.276Z,9.50
2023-03-26T15:47:06.768Z,9.70
2023-03-26T15:49:41.901Z,9.70
2023-03-26T15:52:08.641Z,9.70
2023-03-26T15:54:46.740Z,9.70
2023-03-26T15:57:16.851Z,9.60
2023-03-26T16:00:17.897Z,9.50
2023-03-26T16:02:50.414Z,9.50
2023-03-26T16:05:21.365Z,9.50
2023-03-26T16:07:58.718Z,9.40
2023-03-26T16:10:44.957Z,9.30
2023-03-26T16:13:18.217Z,9.40
2023-03-26T16:15:58.055Z,9.40
2023-03-26T16:18:31.147Z,9.30
2023-03-26T16:21:31.475Z,9.40
2023-03-26T16:24:02.160Z,9.40
2023-03-26T16:26:44.502Z,9.20
2023-03-26T16:29:14.554Z,8.90
2023-03-26T16:31:56.717Z,9.10
2023-03-26T16:34:42.044Z,9.00
2023-03-26T16:37:46.135Z,9.00
2023-03-26T16:40:20.261Z,8.90
2023-03-26T16:43:05.283Z,8.80
2023-03-26T16:45:44.055Z,8.90
2023-03-26T16:48:29.525Z,8.90
2023-03-26T16:51:03.768Z,8.80
2023-03-26T16:53:41.642Z,8.70
2023-03-26T16:56:11.312Z,8.70
2023-03-26T16:58:47.978Z,8.70
2023-03-26T17:01:27.285Z,8.60
2023-03-26T17:04:29.491Z,8.50
2023-03-26T17:06:56.647Z,8.30
2023-03-26T17:09:25.854Z,8.40
2023-03-26T17:11:52.574Z,8.40
2023-03-26T17:14:35.216Z,8.30
2023-03-26T17:17:04.902Z,8.30
2023-03-26T17:19:46.731Z,8.30
2023-03-26T17:22:16.638Z,8.20
2023-03-26T17:24:51.928Z,8.20
2023-03-26T17:27:26.611Z,8.20
2023-03-26T17:30:07.551Z,8.10
2023-03-26T17:32:55.996Z,8.10
2023-03-26T17:35:41.290Z,7.90
2023-03-26T17:38:27.985Z,7.90
2023-03-26T17:40:56.792Z,7.90
2023-03-26T17:43:43.692Z,7.80
2023-03-26T17:46:10.413Z,7.90
2023-03-26T17:48:38.342Z,7.80
2023-03-26T17:51:26.242Z,7.80
2023-03-26T17:53:53.094Z,7.90
2023-03-26T17:56:22.585Z,7.90
2023-03-26T17:58:52.662Z,8.00
2023-03-26T18:01:37.143Z,7.90
2023-03-26T18:04:05.994Z,8.00
2023-03-26T18:06:32.669Z,8.00
2023-03-26T18:09:09.811Z,7.80
2023-03-26T18:11:53.341Z,7.90
2023-03-26T18:14:26.325Z,8.00
2023-03-26T18:16:53.889Z,7.90
2023-03-26T18:19:22.827Z,7.90
2023-03-26T18:21:51.379Z,8.00
2023-03-26T18:24:37.609Z,7.90
2023-03-26T18:27:12.224Z,7.80
2023-03-26T18:29:43.117Z,7.80
2023-03-26T18:32:09.994Z,7.80
2023-03-26T18:34:45.753Z,7.80
2023-03-26T18:37:18.009Z,7.80
2023-03-26T18:39:56.927Z,7.80
2023-03-26T18:42:25.294Z,7.70
2023-03-26T18:44:53.188Z,7.80
2023-03-26T18:47:20.581Z,7.70
2023-03-26T18:49:49.682Z,7.90
2023-03-26T18:52:18.275Z,7.90
2023-03-26T18:54:49.554Z,7.90
2023-03-26T18:57:21.772Z,7.90
2023-03-26T18:59:50.316Z,7.90
2023-03-26T19:02:18.073Z,7.80
2023-03-26T19:04:47.123Z,7.80
2023-03-26T19:07:15.799Z,7.70
2023-03-26T19:09:43.494Z,7.90
2023-03-26T19:12:16.213Z,7.80
2023-03-26T19:14:57.198Z,7.70
2023-03-26T19:17:26.574Z,7.60
2023-03-26T19:19:54.189Z,7.60
2023-03-26T19:22:24.946Z,7.50
2023-03-26T19:24:54.497Z,7.30
2023-03-26T19:27:21.237Z,7.40
2023-03-26T19:29:48.007Z,7.40
2023-03-26T19:32:16.458Z,7.30
2023-03-26T19:34:44.038Z,7.20
2023-03-26T19:37:20.026Z,7.20
2023-03-26T19:39:54.025Z,7.00
2023-03-26T19:42:43.233Z,7.10
2023-03-26T19:45:22.841Z,6.90
2023-03-26T19:48:00.053Z,6.90
2023-03-26T19:50:33.086Z,6.90
2023-03-26T19:53:15.189Z,7.00
2023-03-26T19:55:52.192Z,6.90
2023-03-26T19:58:19.784Z,6.90
2023-03-26T20:00:46.673Z,6.80
2023-03-26T20:03:16.577Z,6.80
2023-03-26T20:05:43.536Z,6.70
2023-03-26T20:08:12.940Z,6.40
2023-03-26T20:10:39.696Z,6.70
2023-03-26T20:13:16.306Z,6.60
2023-03-26T20:15:45.161Z,6.70
2023-03-26T20:18:13.376Z,6.80
2023-03-26T20:20:41.316Z,6.70
2023-03-26T20:23:14.380Z,6.80
2023-03-26T20:25:47.268Z,6.80
2023-03-26T20:28:14.207Z,6.80
2023-03-26T20:30:41.069Z,6.90
2023-03-26T20:33:14.489Z,6.80
2023-03-26T20:35:41.538Z,6.80
2023-03-26T20:38:09.633Z,6.70
2023-03-26T20:40:37.103Z,6.90
2023-03-26T20:43:03.886Z,6.80
2023-03-26T20:45:30.567Z,6.70
2023-03-26T20:47:57.507Z,6.80
2023-03-26T20:50:24.687Z,6.60
2023-03-26T20:52:51.528Z,6.60
2023-03-26T20:55:21.371Z,6.50
2023-03-26T20:57:48.637Z,6.70
2023-03-26T21:00:21.821Z,6.50
2023-03-26T21:02:55.333Z,6.50
2023-03-26T21:05:26.835Z,6.50
2023-03-26T21:07:54.524Z,6.60
2023-03-26T21:10:21.508Z,6.70
2023-03-26T21:12:59.554Z,6.80
2023-03-26T21:15:27.791Z,6.80
2023-03-26T21:17:57.584Z,6.60
2023-03-26T21:20:27.853Z,6.70
2023-03-26T21:22:58.280Z,6.80
2023-03-26T21:25:27.716Z,6.80
2023-03-26T21:28:00.542Z,6.80
2023-03-26T21:30:27.419Z,6.80
2023-03-26T21:32:54.369Z,6.90
2023-03-26T21:35:21.575Z,6.90
2023-03-26T21:37:48.780Z,6.90
2023-03-26T21:40:18.141Z,6.80
2023-03-26T21:42:46.753Z,6.80
2023-03-26T21:45:13.957Z,6.90
2023-03-26T21:47:41.271Z,6.80
2023-03-26T21:50:09.024Z,6.70
2023-03-26T21:52:36.064Z,6.80
2023-03-26T21:55:05.151Z,6.70
2023-03-26T21:57:34.751Z,6.70
2023-03-26T22:00:08.508Z,6.70
2023-03-26T22:02:35.327Z,6.70
2023-03-26T22:05:11.844Z,6.80
2023-03-26T22:07:57.281Z,6.70
2023-03-26T22:10:24.239Z,6.80
2023-03-26T22:12:51.062Z,6.50
2023-03-26T22:15:18.446Z,6.60
2023-03-26T22:17:45.519Z,6.50
2023-03-26T22:20:13.847Z,6.80
2023-03-26T22:22:41.534Z,6.80
2023-03-26T22:25:10.346Z,6.70
2023-03-26T22:27:44.470Z,6.80
2023-03-26T22:30:12.436Z,6.80
2023-03-26T22:32:39.261Z,6.80
2023-03-26T22:35:07.021Z,6.80
2023-03-26T22:37:34.700Z,6.70
2023-03-26T22:40:01.501Z,6.90
2023-03-26T22:42:28.380Z,6.70
2023-03-26T22:44:55.395Z,6.50
2023-03-26T22:47:22.475Z,6.80
2023-03-26T22:49:49.265Z,6.60
2023-03-26T22:52:16.064Z,6.70
2023-03-26T22:54:42.901Z,6.40
2023-03-26T22:57:09.717Z,6.50
2023-03-26T22:59:36.732Z,6.60
2023-03-26T23:02:03.960Z,6.60
2023-03-26T23:04:32.451Z,6.70
2023-03-26T23:06:59.804Z,6.70
2023-03-26T23:09:26.583Z,6.60
2023-03-26T23:11:53.447Z,6.70
2023-03-26T23:14:20.197Z,6.30
2023-03-26T23:16:46.937Z,6.70
2023-03-26T23:19:13.817Z,6.60
2023-03-26T23:21:40.529Z,6.60
2023-03-26T23:24:07.353Z,6.70
2023-03-26T23:26:43.852Z,6.70
2023-03-26T23:29:14.642Z,6.70
2023-03-26T23:31:42.214Z,6.80
2023-03-26T23:34:09.045Z,6.80
2023-03-26T23:36:36.385Z,6.70
2023-03-26T23:39:04.819Z,6.80
2023-03-26T23:41:31.643Z,6.70
2023-03-26T23:43:58.421Z,6.80
2023-03-26T23:46:34.631Z,6.70
2023-03-26T23:49:04.837Z,6.70
2023-03-26T23:51:32.050Z,6.80
2023-03-26T23:53:59.874Z,6.80
2023-03-26T23:56:29.984Z,6.60
2023-03-26T23:58:57.173Z,6.60
